Sheffield, Ohio
Current Conditions -  °F | °C
As of 8:14 PM on Tuesday 21 Oct 2014 (Local Time) from KLPR Reporting Station
Light Rain Light Rain  
Wind Chill: 40°   Ceiling: 1600
Heat Index: 46°   Visibility: 8mi
Dew Point: 44°   Wind: 14mph
Humidity: 93%   Direction: 360°N
Pressure: 30.09"   Gusts: 23mph
Location:  41.4372°N, 82.1333°W
Report Text: KLPR 220014Z AUTO 36012G20KT 8SM -RA SCT010 BKN016 OVC022 08/07 A3009 RMK AO2 P0001 T00780067 TSNO
Loading
Personal Weather Stations






























Interactive Weather Map
Tropical Storm Tracking
New forecast layout! Learn more

10-Day Weather Forecast

Advertisements
Track Severe Weather on mobile